createdAt,value
2022-11-21T00:01:24.832Z,9.88
2022-11-21T00:07:09.927Z,10.00
2022-11-21T00:16:25.188Z,9.63
2022-11-21T00:28:11.210Z,10.43
2022-11-21T00:30:57.373Z,10.70
2022-11-21T00:36:41.511Z,10.52
2022-11-21T00:42:25.666Z,10.95
2022-11-21T00:44:56.874Z,11.05
2022-11-21T00:47:30.420Z,11.02
2022-11-21T00:50:02.865Z,9.55
2022-11-21T00:52:33.421Z,10.13
2022-11-21T00:55:05.347Z,10.25
2022-11-21T00:57:35.382Z,10.07
2022-11-21T01:00:08.343Z,11.50
2022-11-21T01:02:37.864Z,11.20
2022-11-21T01:05:08.445Z,11.32
2022-11-21T01:07:38.228Z,10.73
2022-11-21T01:10:10.314Z,11.25
2022-11-21T01:12:39.606Z,11.75
2022-11-21T01:15:11.535Z,11.88
2022-11-21T01:17:42.655Z,11.15
2022-11-21T01:20:13.168Z,12.30
2022-11-21T01:22:43.553Z,11.40
2022-11-21T01:25:13.370Z,11.85
2022-11-21T01:27:44.181Z,11.30
2022-11-21T01:30:16.164Z,9.80
2022-11-21T01:32:49.609Z,10.50
2022-11-21T01:35:21.504Z,11.13
2022-11-21T01:37:51.324Z,12.32
2022-11-21T01:40:20.733Z,11.38
2022-11-21T01:42:59.917Z,9.63
2022-11-21T01:45:56.731Z,12.70
2022-11-21T01:48:30.620Z,12.50
2022-11-21T01:51:04.723Z,11.43
2022-11-21T01:53:35.419Z,10.85
2022-11-21T01:56:05.710Z,12.18
2022-11-21T01:58:37.013Z,12.85
2022-11-21T02:01:11.497Z,11.70
2022-11-21T02:03:44.839Z,12.45
2022-11-21T02:06:15.097Z,11.95
2022-11-21T02:08:46.101Z,11.90
2022-11-21T02:11:23.081Z,11.20
2022-11-21T02:13:52.635Z,11.77
2022-11-21T02:16:23.589Z,11.82
2022-11-21T02:18:53.340Z,11.05
2022-11-21T02:21:29.227Z,10.73
2022-11-21T02:24:05.824Z,12.15
2022-11-21T02:26:37.149Z,11.68
2022-11-21T02:29:06.327Z,11.27
2022-11-21T02:31:36.574Z,12.10
2022-11-21T02:34:06.973Z,12.70
2022-11-21T02:36:44.202Z,11.98
2022-11-21T02:39:19.789Z,12.35
2022-11-21T02:41:59.156Z,11.35
2022-11-21T02:44:35.719Z,11.73
2022-11-21T02:47:07.070Z,10.88
2022-11-21T02:49:49.458Z,11.95
2022-11-21T02:52:23.062Z,11.13
2022-11-21T02:54:53.634Z,11.95
2022-11-21T02:57:24.874Z,10.95
2022-11-21T02:59:54.677Z,11.50
2022-11-21T03:02:27.150Z,10.13
2022-11-21T03:04:58.117Z,11.45
2022-11-21T03:07:28.137Z,10.50
2022-11-21T03:09:58.091Z,10.40
2022-11-21T03:12:29.654Z,10.50
2022-11-21T03:14:59.046Z,10.88
2022-11-21T03:17:28.100Z,12.35
2022-11-21T03:19:57.645Z,11.77
2022-11-21T03:22:27.094Z,11.20
2022-11-21T03:24:57.591Z,11.90
2022-11-21T03:27:28.816Z,11.35
2022-11-21T03:29:58.577Z,10.73
2022-11-21T03:32:27.972Z,11.77
2022-11-21T03:35:00.389Z,12.05
2022-11-21T03:37:29.638Z,11.95
2022-11-21T03:39:59.234Z,11.57
2022-11-21T03:42:29.852Z,12.43
2022-11-21T03:45:01.723Z,12.55
2022-11-21T03:47:31.863Z,12.73
2022-11-21T03:50:02.831Z,11.68
2022-11-21T03:52:35.875Z,12.48
2022-11-21T03:55:11.102Z,11.10
2022-11-21T03:57:42.553Z,12.45
2022-11-21T04:00:13.297Z,10.65
2022-11-21T04:02:42.691Z,11.57
2022-11-21T04:05:13.231Z,11.90
2022-11-21T04:07:42.725Z,11.50
2022-11-21T04:10:12.317Z,10.75
2022-11-21T04:12:42.905Z,11.77
2022-11-21T04:15:14.122Z,11.80
2022-11-21T04:17:43.293Z,13.52
2022-11-21T04:20:13.067Z,10.35
2022-11-21T04:22:43.464Z,12.00
2022-11-21T04:25:13.883Z,12.82
2022-11-21T04:27:45.625Z,10.45
2022-11-21T04:30:18.355Z,13.32
2022-11-21T04:32:49.975Z,12.82
2022-11-21T04:35:20.313Z,12.27
2022-11-21T04:37:50.542Z,12.95
2022-11-21T04:40:21.041Z,13.10
2022-11-21T04:43:00.267Z,12.75
2022-11-21T04:45:31.618Z,13.98
2022-11-21T04:48:02.483Z,12.68
2022-11-21T04:50:35.771Z,12.20
2022-11-21T04:53:05.983Z,12.60
2022-11-21T04:55:37.132Z,12.80
2022-11-21T04:58:09.207Z,11.25
2022-11-21T05:00:39.672Z,11.30
2022-11-21T05:03:10.126Z,13.80
2022-11-21T05:05:43.598Z,10.60
2022-11-21T05:08:15.252Z,13.82
2022-11-21T05:11:05.500Z,11.93
2022-11-21T05:13:37.998Z,13.77
2022-11-21T05:16:09.112Z,12.32
2022-11-21T05:18:41.140Z,13.27
2022-11-21T05:21:17.925Z,12.65
2022-11-21T05:23:48.430Z,13.65
2022-11-21T05:26:20.994Z,12.73
2022-11-21T05:28:54.209Z,12.70
2022-11-21T05:31:24.820Z,13.07
2022-11-21T05:33:55.376Z,12.73
2022-11-21T05:36:28.918Z,12.25
2022-11-21T05:38:59.863Z,11.70
2022-11-21T05:41:29.590Z,12.43
2022-11-21T05:50:41.691Z,12.03
2022-11-21T05:53:14.515Z,12.85
2022-11-21T05:55:56.016Z,12.07
2022-11-21T05:58:26.651Z,10.55
2022-11-21T06:01:01.700Z,10.25
2022-11-21T06:03:37.896Z,11.18
2022-11-21T06:09:53.204Z,10.55
2022-11-21T06:12:25.833Z,10.70
2022-11-21T06:14:55.781Z,10.32
2022-11-21T06:17:31.458Z,10.35
2022-11-21T06:20:07.260Z,10.23
2022-11-21T06:22:37.106Z,11.82
2022-11-21T06:45:49.561Z,12.45
2022-11-21T06:48:34.106Z,12.90
2022-11-21T06:51:07.043Z,11.95
2022-11-21T06:58:05.383Z,11.00
2022-11-21T07:11:59.545Z,9.77
2022-11-21T07:16:22.363Z,10.55
2022-11-21T07:19:01.010Z,10.80
2022-11-21T07:22:18.245Z,9.88
2022-11-21T07:29:04.202Z,11.18
2022-11-21T07:35:56.411Z,10.85
2022-11-21T07:43:11.097Z,10.60
2022-11-21T07:45:51.136Z,12.00
2022-11-21T08:13:00.527Z,10.00
2022-11-21T10:06:19.534Z,12.57
2022-11-21T10:09:04.676Z,11.80
2022-11-21T10:12:01.464Z,11.27
2022-11-21T10:15:04.329Z,10.98
2022-11-21T10:24:23.233Z,8.75
2022-11-21T10:27:02.139Z,9.45
2022-11-21T10:29:41.939Z,9.18
2022-11-21T10:32:35.584Z,8.80
2022-11-21T10:35:17.438Z,8.50
2022-11-21T10:37:55.710Z,8.65
2022-11-21T10:40:43.278Z,7.45
2022-11-21T10:43:51.452Z,8.05
2022-11-21T10:46:22.744Z,7.95
2022-11-21T10:48:58.326Z,8.07
2022-11-21T10:51:48.799Z,7.25
2022-11-21T10:54:37.074Z,7.38
2022-11-21T10:57:15.437Z,7.07
2022-11-21T11:00:00.954Z,7.78
2022-11-21T11:02:35.740Z,8.73
2022-11-21T11:05:21.839Z,7.50
2022-11-21T11:08:08.666Z,7.65
2022-11-21T11:10:49.685Z,9.38
2022-11-21T11:13:47.670Z,8.18
2022-11-21T11:16:21.963Z,8.30
2022-11-21T11:19:33.989Z,7.88
2022-11-21T11:22:30.089Z,8.45
2022-11-21T11:25:00.912Z,8.10
2022-11-21T11:27:33.971Z,8.23
2022-11-21T11:30:10.376Z,6.53
2022-11-21T11:32:42.451Z,7.38
2022-11-21T11:35:24.281Z,6.40
2022-11-21T11:38:02.663Z,7.55
2022-11-21T11:40:39.633Z,7.28
2022-11-21T11:43:48.827Z,7.47
2022-11-21T11:47:03.701Z,7.00
2022-11-21T11:49:59.203Z,6.82
2022-11-21T11:52:34.811Z,6.50
2022-11-21T11:55:09.778Z,6.32
2022-11-21T11:57:40.613Z,5.93
2022-11-21T12:00:26.455Z,5.47
2022-11-21T12:03:04.401Z,5.05
2022-11-21T12:05:34.647Z,5.75
2022-11-21T12:08:41.540Z,5.30
2022-11-21T12:11:35.596Z,5.20
2022-11-21T12:14:34.756Z,5.97
2022-11-21T12:17:07.939Z,4.93
2022-11-21T12:19:41.002Z,5.53
2022-11-21T12:22:12.735Z,6.70
2022-11-21T12:24:43.471Z,4.93
2022-11-21T12:27:28.757Z,4.72
2022-11-21T12:30:24.565Z,5.68
2022-11-21T12:33:02.365Z,5.63
2022-11-21T12:36:14.199Z,5.50
2022-11-21T12:39:07.400Z,5.30
2022-11-21T12:42:03.113Z,4.72
2022-11-21T12:44:55.178Z,5.55
2022-11-21T12:48:01.178Z,5.28
2022-11-21T12:50:59.407Z,5.85
2022-11-21T12:53:58.104Z,5.55
2022-11-21T12:56:41.271Z,5.38
2022-11-21T12:59:16.665Z,6.60
2022-11-21T13:01:58.170Z,5.10
2022-11-21T13:04:32.467Z,5.07
2022-11-21T13:07:09.266Z,5.68
2022-11-21T13:09:43.256Z,5.88
2022-11-21T13:12:20.383Z,5.38
2022-11-21T13:14:55.093Z,5.20
2022-11-21T13:17:38.641Z,4.40
2022-11-21T13:20:21.433Z,4.47
2022-11-21T13:22:56.381Z,5.07
2022-11-21T13:25:48.336Z,5.13
2022-11-21T13:28:39.091Z,4.13
2022-11-21T13:31:38.518Z,3.63
2022-11-21T13:34:39.249Z,4.05
2022-11-21T13:37:08.860Z,4.07
2022-11-21T13:39:49.395Z,3.80
2022-11-21T13:42:58.369Z,3.05
2022-11-21T13:45:43.690Z,3.47
2022-11-21T13:48:28.286Z,2.58
2022-11-21T13:55:19.343Z,3.38
2022-11-21T13:58:06.932Z,2.55
2022-11-21T14:01:05.229Z,2.80
2022-11-21T14:03:57.704Z,2.75
2022-11-21T14:06:38.885Z,2.60
2022-11-21T14:09:25.152Z,3.65
2022-11-21T14:12:00.389Z,2.88
2022-11-21T14:14:33.327Z,3.30
2022-11-21T14:17:39.161Z,2.97
2022-11-21T14:20:18.461Z,2.78
2022-11-21T14:22:55.277Z,2.80
2022-11-21T14:25:30.013Z,3.05
2022-11-21T14:28:07.765Z,3.03
2022-11-21T14:34:00.126Z,3.40
2022-11-21T14:36:30.501Z,3.50
2022-11-21T14:42:07.352Z,2.70
2022-11-21T14:44:48.340Z,3.28
2022-11-21T14:47:25.766Z,2.72
2022-11-21T14:50:06.941Z,3.10
2022-11-21T14:52:37.724Z,2.80
2022-11-21T14:55:30.184Z,3.28
2022-11-21T14:57:59.585Z,2.90
2022-11-21T15:03:30.149Z,3.50
2022-11-21T15:10:26.130Z,3.03
2022-11-21T15:12:45.845Z,2.80
2022-11-21T15:15:38.560Z,2.83
2022-11-21T15:22:36.721Z,2.22
2022-11-21T15:25:40.545Z,2.33
2022-11-21T15:28:28.783Z,2.22
2022-11-21T15:31:21.706Z,2.20
2022-11-21T15:34:33.631Z,2.40
2022-11-21T15:37:08.457Z,2.40
2022-11-21T15:39:48.612Z,2.45
2022-11-21T15:42:39.590Z,2.35
2022-11-21T15:45:26.822Z,2.05
2022-11-21T15:47:57.792Z,2.60
2022-11-21T15:50:30.681Z,2.50
2022-11-21T15:52:59.848Z,2.30
2022-11-21T15:55:33.272Z,2.70
2022-11-21T15:58:08.353Z,2.30
2022-11-21T16:00:39.356Z,2.45
2022-11-21T16:03:10.305Z,2.30
2022-11-21T16:05:40.358Z,2.78
2022-11-21T16:08:11.636Z,2.22
2022-11-21T16:10:41.588Z,2.08
2022-11-21T16:13:12.074Z,2.28
2022-11-21T16:15:42.350Z,2.72
2022-11-21T16:18:55.261Z,2.05
2022-11-21T16:21:28.629Z,2.35
2022-11-21T16:24:07.566Z,2.53
2022-11-21T16:26:42.844Z,2.28
2022-11-21T16:29:14.601Z,7.75
2022-11-21T16:31:46.880Z,3.30
2022-11-21T16:34:23.021Z,2.60
2022-11-21T16:36:53.240Z,3.20
2022-11-21T16:39:32.659Z,2.65
2022-11-21T16:42:03.357Z,2.60
2022-11-21T16:44:34.275Z,2.83
2022-11-21T16:47:11.932Z,3.65
2022-11-21T16:49:48.374Z,3.30
2022-11-21T16:52:19.302Z,3.22
2022-11-21T16:54:52.273Z,3.45
2022-11-21T16:57:23.519Z,3.50
2022-11-21T16:59:57.767Z,3.72
2022-11-21T17:02:30.363Z,3.17
2022-11-21T17:05:03.362Z,3.22
2022-11-21T17:07:33.636Z,3.63
2022-11-21T17:10:07.622Z,3.10
2022-11-21T17:12:39.129Z,3.35
2022-11-21T17:15:12.869Z,2.85
2022-11-21T17:17:43.836Z,2.88
2022-11-21T17:20:15.328Z,2.85
2022-11-21T17:22:47.161Z,2.55
2022-11-21T17:25:20.269Z,2.45
2022-11-21T17:30:21.774Z,2.58
2022-11-21T17:32:51.657Z,2.28
2022-11-21T17:35:23.175Z,2.42
2022-11-21T17:37:53.763Z,2.92
2022-11-21T17:40:24.234Z,2.58
2022-11-21T17:42:57.888Z,2.70
2022-11-21T17:45:30.508Z,2.67
2022-11-21T17:48:00.547Z,2.90
2022-11-21T17:50:32.690Z,2.60
2022-11-21T17:53:10.375Z,3.03
2022-11-21T17:55:43.671Z,2.58
2022-11-21T17:58:14.226Z,2.83
2022-11-21T18:00:46.712Z,2.47
2022-11-21T18:03:17.657Z,3.00
2022-11-21T18:06:18.778Z,2.53
2022-11-21T18:08:49.560Z,2.65
2022-11-21T18:11:23.424Z,2.28
2022-11-21T18:13:54.237Z,2.65
2022-11-21T18:16:31.375Z,3.22
2022-11-21T18:22:52.928Z,2.88
2022-11-21T18:25:22.523Z,2.45
2022-11-21T18:27:54.879Z,2.70
2022-11-21T18:30:30.551Z,2.75
2022-11-21T18:33:00.444Z,3.00
2022-11-21T18:35:30.122Z,3.45
2022-11-21T18:38:01.194Z,3.00
2022-11-21T18:40:34.295Z,3.30
2022-11-21T18:43:03.921Z,3.30
2022-11-21T18:46:10.069Z,3.20
2022-11-21T18:49:01.599Z,3.22
2022-11-21T18:51:32.632Z,3.55
2022-11-21T18:54:07.507Z,3.70
2022-11-21T18:56:41.620Z,3.47
2022-11-21T18:59:15.696Z,3.17
2022-11-21T19:02:15.290Z,3.00
2022-11-21T19:04:51.242Z,3.33
2022-11-21T19:07:22.360Z,2.67
2022-11-21T19:10:14.526Z,2.75
2022-11-21T19:15:20.683Z,2.80
2022-11-21T19:17:50.458Z,3.00
2022-11-21T19:20:21.290Z,2.92
2022-11-21T19:22:52.585Z,2.72
2022-11-21T19:25:24.341Z,2.67
2022-11-21T19:27:53.716Z,2.90
2022-11-21T19:30:23.571Z,2.63
2022-11-21T19:32:53.374Z,2.40
2022-11-21T19:35:23.788Z,2.20
2022-11-21T19:37:53.981Z,2.35
2022-11-21T19:40:25.380Z,2.15
2022-11-21T19:43:41.752Z,2.10
2022-11-21T19:46:12.153Z,1.88
2022-11-21T19:48:42.482Z,2.30
2022-11-21T19:51:11.999Z,2.00
2022-11-21T19:53:44.360Z,2.03
2022-11-21T19:56:17.400Z,2.03
2022-11-21T19:58:47.406Z,1.73
2022-11-21T20:01:19.731Z,1.58
2022-11-21T20:03:50.428Z,2.13
2022-11-21T20:06:21.790Z,2.55
2022-11-21T20:08:52.880Z,2.80
2022-11-21T20:11:25.028Z,2.38
2022-11-21T20:13:54.752Z,3.38
2022-11-21T20:16:25.728Z,3.53
2022-11-21T20:19:00.118Z,4.60
2022-11-21T20:21:30.566Z,3.10
2022-11-21T20:24:00.742Z,3.17
2022-11-21T20:26:33.233Z,2.85
2022-11-21T20:29:02.887Z,2.63
2022-11-21T20:31:33.956Z,2.58
2022-11-21T20:34:05.548Z,2.78
2022-11-21T20:36:39.576Z,2.40
2022-11-21T20:39:13.906Z,2.70
2022-11-21T20:41:47.381Z,1.90
2022-11-21T20:47:09.921Z,2.60
2022-11-21T20:49:40.882Z,2.50
2022-11-21T20:55:04.323Z,2.65
2022-11-21T20:57:35.716Z,2.13
2022-11-21T21:00:14.721Z,2.45
2022-11-21T21:02:49.988Z,2.25
2022-11-21T21:05:19.764Z,2.17
2022-11-21T21:07:49.906Z,2.30
2022-11-21T21:10:22.653Z,2.38
2022-11-21T21:12:55.595Z,2.40
2022-11-21T21:15:28.704Z,2.55
2022-11-21T21:18:03.843Z,2.42
2022-11-21T21:20:44.364Z,2.55
2022-11-21T21:23:26.512Z,2.35
2022-11-21T21:25:56.473Z,2.70
2022-11-21T21:28:27.225Z,2.45
2022-11-21T21:30:56.829Z,2.60
2022-11-21T21:33:29.546Z,2.50
2022-11-21T21:36:06.465Z,2.42
2022-11-21T21:38:36.579Z,2.45
2022-11-21T21:41:13.406Z,2.42
2022-11-21T21:43:46.576Z,2.65
2022-11-21T21:46:19.438Z,2.63
2022-11-21T21:48:49.466Z,2.40
2022-11-21T21:51:21.391Z,2.42
2022-11-21T21:53:54.243Z,2.45
2022-11-21T21:56:24.691Z,2.27
2022-11-21T21:58:56.128Z,2.22
2022-11-21T22:01:29.824Z,2.65
2022-11-21T22:06:29.563Z,3.00
2022-11-21T22:08:58.797Z,1.95
2022-11-21T22:11:28.864Z,2.45
2022-11-21T22:14:01.163Z,1.80
2022-11-21T22:16:31.043Z,1.70
2022-11-21T22:19:01.006Z,1.85
2022-11-21T22:21:32.673Z,1.60
2022-11-21T22:24:24.321Z,1.63
2022-11-21T22:26:53.877Z,1.52
2022-11-21T22:29:29.298Z,1.50
2022-11-21T22:31:59.305Z,1.70
2022-11-21T22:34:28.974Z,1.08
2022-11-21T22:36:58.906Z,1.48
2022-11-21T22:39:31.517Z,1.50
2022-11-21T22:42:01.512Z,1.85
2022-11-21T22:44:32.352Z,1.60
2022-11-21T22:47:02.359Z,1.70
2022-11-21T22:49:31.698Z,1.40
2022-11-21T22:52:00.934Z,1.65
2022-11-21T22:54:31.386Z,2.17
2022-11-21T22:57:01.099Z,1.90
2022-11-21T22:59:31.833Z,1.70
2022-11-21T23:02:02.684Z,1.40
2022-11-21T23:04:32.274Z,1.67
2022-11-21T23:07:01.733Z,1.65
2022-11-21T23:09:31.291Z,1.77
2022-11-21T23:12:00.822Z,1.98
2022-11-21T23:14:31.565Z,1.80
2022-11-21T23:17:00.815Z,2.75
2022-11-21T23:19:31.179Z,2.05
2022-11-21T23:22:00.239Z,2.42
2022-11-21T23:24:29.965Z,2.63
2022-11-21T23:26:59.055Z,2.70
2022-11-21T23:29:33.023Z,3.25
2022-11-21T23:32:04.836Z,2.63
2022-11-21T23:34:33.914Z,2.50
2022-11-21T23:37:03.116Z,2.75
2022-11-21T23:39:32.438Z,2.33
2022-11-21T23:42:01.447Z,2.05
2022-11-21T23:44:33.771Z,2.05
2022-11-21T23:47:03.028Z,2.17
2022-11-21T23:49:32.039Z,2.22
2022-11-21T23:52:01.379Z,1.83
2022-11-21T23:54:30.763Z,2.20
2022-11-21T23:56:59.975Z,2.00
2022-11-21T23:59:29.039Z,1.60
